National Weather Service Raw Text Product

Displaying AFOS PIL: TAFFOD Received: 2018-01-03 17:26 UTC


746 
FTUS43 KDMX 031726 AAB
TAFFOD
TAF AMD
KFOD 031726Z 0317/0412 33011KT P6SM SKC
     FM040300 34005KT P6SM SCT250=